Time;durP1;ratioP1;P1;durP2;ratioP2;P2;SDS_P1;SDS_P2;PMS_P1;PMS_P2;Temp;Humidity;BMP_temperature;BMP_pressure;BME280_temperature;BME280_humidity;BME280_pressure;Samples;Min_cycle;Max_cycle;Signal;HPM_P1;HPM_P2
2021/07/30 00:00:04;;;;;;;;;;;;;;;;;;1028114;28;20315;-82
2021/07/30 00:00:35;;;;;;;;;;;;;;;;;;1029471;28;19926;-81
2021/07/30 00:01:05;;;;;;;;;;;;;;;;;;1029447;28;20355;-81
2021/07/30 00:01:35;;;;;;;;;;;;;;;;;;1029257;28;19910;-82
2021/07/30 00:02:05;;;;;;;;;;;;;;;;;;1029103;28;20439;-81
2021/07/30 00:02:36;;;;;;;;;;;;;;;;;;1025371;28;19946;-81
2021/07/30 00:03:06;;;;;;;;;;;;;;;;;;1029760;28;20360;-81
2021/07/30 00:03:36;;;;;;;;;;;;;;;;;;1029977;28;19917;-82
2021/07/30 00:04:07;;;;;;;;;;;;;;;;;;1025845;29;19911;-80
2021/07/30 00:04:37;;;;;;;;;;;;;;;;;;1025522;29;19917;-81
2021/07/30 00:05:07;;;;;;;;;;;;;;;;;;1029104;28;20342;-80
2021/07/30 00:05:37;;;;;;;;;;;;;;;;;;1025063;28;19906;-81
2021/07/30 00:06:07;;;;;;;;;;;;;;;;;;1024917;29;19910;-81
2021/07/30 00:06:38;;;;;;;;;;;;;;;;;;1024890;28;20512;-80
2021/07/30 00:07:08;;;;;;;;;;;;;;;;;;1024907;29;19942;-81
2021/07/30 00:07:38;;;;;;;;;;;;;;;;;;1029049;28;19910;-82
2021/07/30 00:08:09;;;;;;;;;;;;;;;;;;1028984;28;19910;-81
2021/07/30 00:08:39;;;;;;;;;;;;;;;;;;1028933;28;19924;-82
2021/07/30 00:09:11;;;;;;;;;;;;;;;;;;1028826;28;19910;-82
2021/07/30 00:09:42;;;;;;;;;;;;;;;;;;1033476;28;19910;-81
2021/07/30 00:10:12;;;;;;;;;;;;;;;;;;1033337;28;19940;-82
2021/07/30 00:10:42;;;;;;;;;;;;;;;;;;1029224;28;20364;-80
2021/07/30 00:11:12;;;;;;;;;;;;;;;;;;1025339;29;19907;-81
2021/07/30 00:11:43;;;;;;;;;;;;;;;;;;1021397;29;19938;-80
2021/07/30 00:12:13;;;;;;;;;;;;;;;;;;1021512;29;20270;-81
2021/07/30 00:12:43;;;;;;;;;;;;;;;;;;1025389;28;20008;-82
2021/07/30 00:13:14;;;;;;;;;;;;;;;;;;1029645;28;19933;-81
2021/07/30 00:13:44;;;;;;;;;;;;;;;;;;1033396;28;19914;-82
2021/07/30 00:14:14;;;;;;;;;;;;;;;;;;1029364;28;19982;-81
2021/07/30 00:14:44;;;;;;;;;;;;;;;;;;1029405;28;19918;-83
2021/07/30 00:15:15;;;;;;;;;;;;;;;;;;1025455;29;19910;-82
2021/07/30 00:15:45;;;;;;;;;;;;;;;;;;1025478;28;19934;-82
2021/07/30 00:16:15;;;;;;;;;;;;;;;;;;1033482;28;19964;-82
2021/07/30 00:16:45;;;;;;;;;;;;;;;;;;1025472;29;19917;-83
2021/07/30 00:17:16;;;;;;;;;;;;;;;;;;1025521;29;20029;-82
2021/07/30 00:17:46;;;;;;;;;;;;;;;;;;1025724;29;20032;-84
2021/07/30 00:18:16;;;;;;;;;;;;;;;;;;1025692;29;19910;-82
2021/07/30 00:18:46;;;;;;;;;;;;;;;;;;1029813;28;19933;-82
2021/07/30 00:19:17;;;;;;;;;;;;;;;;;;1025890;28;19911;-82
2021/07/30 00:19:47;;;;;;;;;;;;;;;;;;1029946;28;19937;-82
2021/07/30 00:20:17;;;;;;;;;;;;;;;;;;1025781;29;19966;-81
2021/07/30 00:20:47;;;;;;;;;;;;;;;;;;1021831;29;20003;-81
2021/07/30 00:21:18;;;;;;;;;;;;;;;;;;1025606;29;20041;-80
2021/07/30 00:21:48;;;;;;;;;;;;;;;;;;1021571;29;20055;-80
2021/07/30 00:22:18;;;;;;;;;;;;;;;;;;1029459;28;19911;-81
2021/07/30 00:22:48;;;;;;;;;;;;;;;;;;1029414;28;19910;-80
2021/07/30 00:23:19;;;;;;;;;;;;;;;;;;1029653;28;20017;-80
2021/07/30 00:23:49;;;;;;;;;;;;;;;;;;1029355;28;19921;-83
2021/07/30 00:24:19;;;;;;;;;;;;;;;;;;1029888;28;19996;-80
2021/07/30 00:24:49;;;;;;;;;;;;;;;;;;1029751;28;20118;-82
2021/07/30 00:25:20;;;;;;;;;;;;;;;;;;1025832;29;19910;-81
2021/07/30 00:25:50;;;;;;;;;;;;;;;;;;1029710;28;19910;-81
2021/07/30 00:26:20;;;;;;;;;;;;;;;;;;1029604;28;20386;-80
2021/07/30 00:26:50;;;;;;;;;;;;;;;;;;1034020;28;20021;-79
2021/07/30 00:27:21;;;;;;;;;;;;;;;;;;1038048;28;19910;-80
2021/07/30 00:27:51;;;;;;;;;;;;;;;;;;1033420;28;19914;-80
2021/07/30 00:28:21;;;;;;;;;;;;;;;;;;1029376;28;19910;-81
2021/07/30 00:28:51;;;;;;;;;;;;;;;;;;1025225;29;19915;-80
2021/07/30 00:29:22;;;;;;;;;;;;;;;;;;1025806;28;19917;-80
2021/07/30 00:29:52;;;;;;;;;;;;;;;;;;1031802;28;19910;-82
2021/07/30 00:30:22;;;;;;;;;;;;;;;;;;1036157;28;19917;-81
2021/07/30 00:30:52;;;;;;;;;;;;;;;;;;1028668;29;19918;-81
2021/07/30 00:31:23;;;;;;;;;;;;;;;;;;1028091;29;19913;-81
2021/07/30 00:31:53;;;;;;;;;;;;;;;;;;1026365;28;19934;-81
2021/07/30 00:32:23;;;;;;;;;;;;;;;;;;1025428;29;19911;-80
2021/07/30 00:32:53;;;;;;;;;;;;;;;;;;1033673;28;20008;-80
2021/07/30 00:33:24;;;;;;;;;;;;;;;;;;1033806;28;19910;-81
2021/07/30 00:33:54;;;;;;;;;;;;;;;;;;1029914;28;19993;-80
2021/07/30 00:34:24;;;;;;;;;;;;;;;;;;1022059;29;19978;-81
2021/07/30 00:34:55;;;;;;;;;;;;;;;;;;1025556;29;19907;-80
2021/07/30 00:35:25;;;;;;;;;;;;;;;;;;1025544;29;19929;-80
2021/07/30 00:35:55;;;;;;;;;;;;;;;;;;1025712;29;19906;-80
2021/07/30 00:36:25;;;;;;;;;;;;;;;;;;1029826;28;20356;-80
2021/07/30 00:36:56;;;;;;;;;;;;;;;;;;1025555;29;19914;-80
2021/07/30 00:37:26;;;;;;;;;;;;;;;;;;1025456;29;19929;-83
2021/07/30 00:37:56;;;;;;;;;;;;;;;;;;1025507;29;19978;-80
2021/07/30 00:38:26;;;;;;;;;;;;;;;;;;1029310;28;19910;-82
2021/07/30 00:38:57;;;;;;;;;;;;;;;;;;1033413;28;19985;-81
2021/07/30 00:39:28;;;;;;;;;;;;;;;;;;1029855;28;19929;-82
2021/07/30 00:39:58;;;;;;;;;;;;;;;;;;1029928;28;19906;-84
2021/07/30 00:40:28;;;;;;;;;;;;;;;;;;1026116;28;20352;-81
2021/07/30 00:41:00;;;;;;;;;;;;;;;;;;1029581;28;20371;-80
2021/07/30 00:41:35;;;;;;;;;;;;;;;;;;1033387;28;20406;-81
2021/07/30 00:42:05;;;;;;;;;;;;;;;;;;1026088;28;19907;-83
2021/07/30 00:42:36;;;;;;;;;;;;;;;;;;1029280;28;19937;-81
2021/07/30 00:43:06;;;;;;;;;;;;;;;;;;1030002;28;19929;-79
2021/07/30 00:43:36;;;;;;;;;;;;;;;;;;1029868;28;19910;-80
2021/07/30 00:44:07;;;;;;;;;;;;;;;;;;1029161;28;20312;-80
2021/07/30 00:45:53;;;;;;;;;;;;;;;;;;1034875;28;19909;-86
2021/07/30 00:55:44;;;;;;;;;;;;;;;;;;1041910;28;19905;-83
2021/07/30 00:56:16;;;;;;;;;;;;;;;;;;1037594;28;19920;-82
2021/07/30 00:56:47;;;;;;;;;;;;;;;;;;1033583;28;19910;-84
2021/07/30 00:57:17;;;;;;;;;;;;;;;;;;1032317;28;19910;-83
2021/07/30 00:57:47;;;;;;;;;;;;;;;;;;1030393;28;19933;-83
2021/07/30 00:58:17;;;;;;;;;;;;;;;;;;1025648;29;19915;-84
2021/07/30 00:58:48;;;;;;;;;;;;;;;;;;1021668;29;19910;-85
2021/07/30 00:59:18;;;;;;;;;;;;;;;;;;1017611;29;19908;-85
2021/07/30 00:59:48;;;;;;;;;;;;;;;;;;1021838;29;20369;-83
2021/07/30 01:00:18;;;;;;;;;;;;;;;;;;1021680;29;19911;-85
2021/07/30 01:00:49;;;;;;;;;;;;;;;;;;1029763;28;19906;-84
2021/07/30 01:01:19;;;;;;;;;;;;;;;;;;1029538;28;19906;-85
2021/07/30 01:01:49;;;;;;;;;;;;;;;;;;1029932;28;20073;-86
2021/07/30 01:02:20;;;;;;;;;;;;;;;;;;1029677;28;19945;-86
2021/07/30 01:02:50;;;;;;;;;;;;;;;;;;1033610;28;19945;-86
2021/07/30 01:03:20;;;;;;;;;;;;;;;;;;1029376;28;19993;-85
2021/07/30 01:03:51;;;;;;;;;;;;;;;;;;1030159;28;19906;-86
2021/07/30 01:04:21;;;;;;;;;;;;;;;;;;1030153;28;20291;-85
2021/07/30 01:04:51;;;;;;;;;;;;;;;;;;1026721;29;19906;-86
2021/07/30 01:05:21;;;;;;;;;;;;;;;;;;1030795;28;19996;-85
2021/07/30 01:05:52;;;;;;;;;;;;;;;;;;1027271;28;19906;-85
2021/07/30 01:06:22;;;;;;;;;;;;;;;;;;1027278;28;19906;-84
2021/07/30 01:06:53;;;;;;;;;;;;;;;;;;1025976;29;19997;-83
2021/07/30 01:07:23;;;;;;;;;;;;;;;;;;1033724;28;19910;-84
2021/07/30 01:07:53;;;;;;;;;;;;;;;;;;1033669;28;19910;-85
2021/07/30 01:08:23;;;;;;;;;;;;;;;;;;1037688;28;19905;-86
2021/07/30 01:08:53;;;;;;;;;;;;;;;;;;1033364;28;19944;-88
2021/07/30 01:09:24;;;;;;;;;;;;;;;;;;1030364;28;19938;-88
2021/07/30 01:09:54;;;;;;;;;;;;;;;;;;1031450;28;19906;-85
2021/07/30 01:10:24;;;;;;;;;;;;;;;;;;1027206;29;19942;-86
2021/07/30 01:10:55;;;;;;;;;;;;;;;;;;1032156;28;19909;-86
2021/07/30 01:11:25;;;;;;;;;;;;;;;;;;1031703;28;19906;-84
2021/07/30 01:11:55;;;;;;;;;;;;;;;;;;1026645;28;19907;-85
2021/07/30 01:12:26;;;;;;;;;;;;;;;;;;1025745;29;19910;-85
2021/07/30 01:12:56;;;;;;;;;;;;;;;;;;1026969;29;19966;-85
2021/07/30 01:13:26;;;;;;;;;;;;;;;;;;1032783;28;19925;-83
2021/07/30 01:13:56;;;;;;;;;;;;;;;;;;1033392;28;19922;-83
2021/07/30 01:14:27;;;;;;;;;;;;;;;;;;1037238;28;19910;-84
2021/07/30 01:14:57;;;;;;;;;;;;;;;;;;1033233;28;19894;-83
2021/07/30 01:15:27;;;;;;;;;;;;;;;;;;1033379;28;19933;-84
2021/07/30 01:15:57;;;;;;;;;;;;;;;;;;1031901;28;19898;-83
2021/07/30 01:16:28;;;;;;;;;;;;;;;;;;1026603;29;19994;-83
2021/07/30 01:16:58;;;;;;;;;;;;;;;;;;1030025;28;19910;-84
2021/07/30 01:17:28;;;;;;;;;;;;;;;;;;1025457;29;19911;-85
2021/07/30 01:17:59;;;;;;;;;;;;;;;;;;1026117;29;19917;-85
2021/07/30 01:18:29;;;;;;;;;;;;;;;;;;1027285;29;19911;-83
2021/07/30 01:18:59;;;;;;;;;;;;;;;;;;1027301;29;19910;-85
2021/07/30 01:19:29;;;;;;;;;;;;;;;;;;1026709;29;20362;-83
2021/07/30 01:20:00;;;;;;;;;;;;;;;;;;1026567;29;19911;-85
2021/07/30 01:20:30;;;;;;;;;;;;;;;;;;1026813;29;19958;-84
2021/07/30 01:21:00;;;;;;;;;;;;;;;;;;1026852;29;19911;-84
2021/07/30 01:21:30;;;;;;;;;;;;;;;;;;1026947;29;19917;-83
2021/07/30 01:22:01;;;;;;;;;;;;;;;;;;1022768;29;19911;-83
2021/07/30 01:22:31;;;;;;;;;;;;;;;;;;1022127;29;19907;-85
2021/07/30 01:23:01;;;;;;;;;;;;;;;;;;1029565;28;19917;-84
2021/07/30 01:23:32;;;;;;;;;;;;;;;;;;1033515;28;19937;-84
2021/07/30 01:24:02;;;;;;;;;;;;;;;;;;1033594;28;19944;-85
2021/07/30 01:24:32;;;;;;;;;;;;;;;;;;1025390;29;19907;-85
2021/07/30 01:25:02;;;;;;;;;;;;;;;;;;1017234;29;19979;-85
2021/07/30 01:25:33;;;;;;;;;;;;;;;;;;1016944;29;19962;-85
2021/07/30 01:26:03;;;;;;;;;;;;;;;;;;1024981;29;19918;-85
2021/07/30 01:26:33;;;;;;;;;;;;;;;;;;1021214;29;20001;-84
2021/07/30 01:27:03;;;;;;;;;;;;;;;;;;1025530;29;20383;-85
2021/07/30 01:27:34;;;;;;;;;;;;;;;;;;1025064;29;19977;-85
2021/07/30 01:28:04;;;;;;;;;;;;;;;;;;1025240;29;19918;-84
2021/07/30 01:28:34;;;;;;;;;;;;;;;;;;1025359;29;20372;-85
2021/07/30 01:29:04;;;;;;;;;;;;;;;;;;1029764;28;19911;-83
2021/07/30 01:29:35;;;;;;;;;;;;;;;;;;1029421;28;19914;-83
2021/07/30 01:30:05;;;;;;;;;;;;;;;;;;1025477;29;19929;-83
2021/07/30 01:30:35;;;;;;;;;;;;;;;;;;1029162;28;19977;-86
2021/07/30 01:31:05;;;;;;;;;;;;;;;;;;1029570;28;19993;-86
2021/07/30 01:31:36;;;;;;;;;;;;;;;;;;1029737;28;20376;-85
2021/07/30 01:32:06;;;;;;;;;;;;;;;;;;1034599;28;19910;-85
2021/07/30 01:32:36;;;;;;;;;;;;;;;;;;1026943;29;19914;-85
2021/07/30 01:33:06;;;;;;;;;;;;;;;;;;1018965;29;19922;-86
2021/07/30 01:33:37;;;;;;;;;;;;;;;;;;1024783;29;19911;-84
2021/07/30 01:34:07;;;;;;;;;;;;;;;;;;1019653;29;19955;-83
2021/07/30 01:34:37;;;;;;;;;;;;;;;;;;1019812;29;19962;-82
2021/07/30 01:35:07;;;;;;;;;;;;;;;;;;1018703;29;19947;-82
2021/07/30 01:35:38;;;;;;;;;;;;;;;;;;1018902;29;19922;-83
2021/07/30 01:36:08;;;;;;;;;;;;;;;;;;1027890;28;19977;-83
2021/07/30 01:36:38;;;;;;;;;;;;;;;;;;1023966;29;19911;-82
2021/07/30 01:37:09;;;;;;;;;;;;;;;;;;1035688;28;19969;-83
2021/07/30 01:37:39;;;;;;;;;;;;;;;;;;1036595;28;19917;-82
2021/07/30 01:38:09;;;;;;;;;;;;;;;;;;1036773;28;19920;-84
2021/07/30 01:38:39;;;;;;;;;;;;;;;;;;1032698;28;19917;-83
2021/07/30 01:39:10;;;;;;;;;;;;;;;;;;1032749;28;19894;-83
2021/07/30 01:39:40;;;;;;;;;;;;;;;;;;1031720;28;20364;-83
2021/07/30 01:40:10;;;;;;;;;;;;;;;;;;1030367;28;19910;-84
2021/07/30 01:40:40;;;;;;;;;;;;;;;;;;1031616;28;19910;-83
2021/07/30 01:41:11;;;;;;;;;;;;;;;;;;1031051;28;19916;-83
2021/07/30 01:41:41;;;;;;;;;;;;;;;;;;1026560;29;19956;-84
2021/07/30 01:42:11;;;;;;;;;;;;;;;;;;1023267;29;20353;-84
2021/07/30 01:42:42;;;;;;;;;;;;;;;;;;1022657;29;19903;-84
2021/07/30 01:43:12;;;;;;;;;;;;;;;;;;1021938;29;20475;-84
2021/07/30 01:43:42;;;;;;;;;;;;;;;;;;1021842;29;19977;-83
2021/07/30 01:44:14;;;;;;;;;;;;;;;;;;1030062;28;19910;-84
2021/07/30 01:44:44;;;;;;;;;;;;;;;;;;1029944;28;19917;-85
2021/07/30 01:45:14;;;;;;;;;;;;;;;;;;1029397;28;19911;-85
2021/07/30 01:45:45;;;;;;;;;;;;;;;;;;1025541;29;20402;-85
2021/07/30 01:46:15;;;;;;;;;;;;;;;;;;1025690;29;19910;-84
2021/07/30 01:46:47;;;;;;;;;;;;;;;;;;1033763;28;20374;-84
2021/07/30 01:47:17;;;;;;;;;;;;;;;;;;1029406;28;19913;-84
2021/07/30 01:47:47;;;;;;;;;;;;;;;;;;1029590;28;19961;-84
2021/07/30 01:48:17;;;;;;;;;;;;;;;;;;1029148;28;19910;-85
2021/07/30 01:48:48;;;;;;;;;;;;;;;;;;1025181;29;20325;-86
2021/07/30 01:49:18;;;;;;;;;;;;;;;;;;1021540;29;20009;-84
2021/07/30 01:49:48;;;;;;;;;;;;;;;;;;1021346;29;19911;-84
2021/07/30 01:50:18;;;;;;;;;;;;;;;;;;1021868;29;19934;-85
2021/07/30 01:50:49;;;;;;;;;;;;;;;;;;1022280;29;19926;-85
2021/07/30 01:51:19;;;;;;;;;;;;;;;;;;1025836;29;19911;-85
2021/07/30 01:51:49;;;;;;;;;;;;;;;;;;1021287;29;20439;-85
2021/07/30 01:52:19;;;;;;;;;;;;;;;;;;1025417;28;19946;-84
2021/07/30 01:52:50;;;;;;;;;;;;;;;;;;1029540;28;19978;-85
2021/07/30 01:53:20;;;;;;;;;;;;;;;;;;1029508;28;19910;-85
2021/07/30 01:53:51;;;;;;;;;;;;;;;;;;1025463;29;19911;-85
2021/07/30 01:54:21;;;;;;;;;;;;;;;;;;1025696;28;19934;-83
2021/07/30 01:54:51;;;;;;;;;;;;;;;;;;1021808;29;19969;-84
2021/07/30 01:55:23;;;;;;;;;;;;;;;;;;1018128;29;19911;-85
2021/07/30 01:55:54;;;;;;;;;;;;;;;;;;1018302;29;19911;-84
2021/07/30 01:56:24;;;;;;;;;;;;;;;;;;1018235;29;19915;-84
2021/07/30 01:56:54;;;;;;;;;;;;;;;;;;1017632;29;20270;-85
2021/07/30 01:57:25;;;;;;;;;;;;;;;;;;1021470;29;20009;-86
2021/07/30 01:57:55;;;;;;;;;;;;;;;;;;1021732;29;19954;-84
2021/07/30 01:58:26;;;;;;;;;;;;;;;;;;1021982;28;19911;-86
2021/07/30 01:58:56;;;;;;;;;;;;;;;;;;1025459;29;19915;-84
2021/07/30 01:59:26;;;;;;;;;;;;;;;;;;1030448;28;19906;-85
2021/07/30 01:59:58;;;;;;;;;;;;;;;;;;1025975;29;19942;-84
2021/07/30 02:00:28;;;;;;;;;;;;;;;;;;1026614;28;19918;-84
2021/07/30 02:00:59;;;;;;;;;;;;;;;;;;1029239;28;20001;-84
2021/07/30 02:01:29;;;;;;;;;;;;;;;;;;1030187;28;19917;-84
2021/07/30 02:02:00;;;;;;;;;;;;;;;;;;1030349;28;20451;-83
2021/07/30 02:02:33;;;;;;;;;;;;;;;;;;1025793;28;19915;-86
2021/07/30 02:03:03;;;;;;;;;;;;;;;;;;1030056;28;19910;-84
2021/07/30 02:03:33;;;;;;;;;;;;;;;;;;1025565;28;19950;-84
2021/07/30 02:04:04;;;;;;;;;;;;;;;;;;1026227;28;19914;-84
2021/07/30 02:04:34;;;;;;;;;;;;;;;;;;1030181;28;19960;-86
2021/07/30 02:05:07;;;;;;;;;;;;;;;;;;1029539;28;19906;-86
2021/07/30 02:05:37;;;;;;;;;;;;;;;;;;1034335;28;19910;-87
2021/07/30 02:06:08;;;;;;;;;;;;;;;;;;1034257;28;19910;-83
2021/07/30 02:06:38;;;;;;;;;;;;;;;;;;1030493;28;19910;-85
2021/07/30 02:07:11;;;;;;;;;;;;;;;;;;1030592;28;19926;-84
2021/07/30 02:07:41;;;;;;;;;;;;;;;;;;1025974;28;19910;-86
2021/07/30 02:08:11;;;;;;;;;;;;;;;;;;1029930;28;19906;-86
2021/07/30 02:08:43;;;;;;;;;;;;;;;;;;1022206;29;19963;-86
2021/07/30 02:09:13;;;;;;;;;;;;;;;;;;1023146;29;19944;-83
2021/07/30 02:09:43;;;;;;;;;;;;;;;;;;1023227;29;19911;-84
2021/07/30 02:10:13;;;;;;;;;;;;;;;;;;1027992;28;19910;-85
2021/07/30 02:10:44;;;;;;;;;;;;;;;;;;1024621;29;19938;-82
2021/07/30 02:11:14;;;;;;;;;;;;;;;;;;1029206;29;19976;-84
2021/07/30 02:11:50;;;;;;;;;;;;;;;;;;1025241;29;19964;-83
2021/07/30 02:12:23;;;;;;;;;;;;;;;;;;1033862;28;19949;-82
2021/07/30 02:14:32;;;;;;;;;;;;;;;;;;1033081;28;19890;-82
2021/07/30 02:15:05;;;;;;;;;;;;;;;;;;1025134;29;19891;-82
2021/07/30 02:15:35;;;;;;;;;;;;;;;;;;1028014;29;19942;-82
2021/07/30 02:16:06;;;;;;;;;;;;;;;;;;1025420;28;19907;-83
2021/07/30 02:16:36;;;;;;;;;;;;;;;;;;1025400;29;19913;-83
2021/07/30 02:17:09;;;;;;;;;;;;;;;;;;1029068;29;20323;-83
2021/07/30 02:17:39;;;;;;;;;;;;;;;;;;1029482;28;19917;-83
2021/07/30 02:18:10;;;;;;;;;;;;;;;;;;1025708;29;19895;-83
2021/07/30 02:18:40;;;;;;;;;;;;;;;;;;1029423;29;19894;-83
2021/07/30 02:19:11;;;;;;;;;;;;;;;;;;1033301;28;20090;-86
2021/07/30 02:19:41;;;;;;;;;;;;;;;;;;1033545;28;19917;-86
2021/07/30 02:20:12;;;;;;;;;;;;;;;;;;1033756;28;19899;-83
2021/07/30 02:20:42;;;;;;;;;;;;;;;;;;1033632;28;19907;-87
2021/07/30 02:21:15;;;;;;;;;;;;;;;;;;1025614;28;19898;-83
2021/07/30 02:21:45;;;;;;;;;;;;;;;;;;1029557;28;19909;-86
2021/07/30 02:22:15;;;;;;;;;;;;;;;;;;1029819;28;19922;-83
2021/07/30 02:22:46;;;;;;;;;;;;;;;;;;1033490;28;19918;-83
2021/07/30 02:23:16;;;;;;;;;;;;;;;;;;1033442;28;19917;-83
2021/07/30 02:23:47;;;;;;;;;;;;;;;;;;1029362;29;19907;-83
2021/07/30 02:24:17;;;;;;;;;;;;;;;;;;1029621;28;19891;-83
2021/07/30 02:24:48;;;;;;;;;;;;;;;;;;1029641;29;19915;-82
2021/07/30 02:25:19;;;;;;;;;;;;;;;;;;1021531;29;19915;-83
2021/07/30 02:25:49;;;;;;;;;;;;;;;;;;1021547;29;19915;-83
2021/07/30 02:26:20;;;;;;;;;;;;;;;;;;1025521;29;19983;-83
2021/07/30 02:26:54;;;;;;;;;;;;;;;;;;1025866;28;19937;-84
2021/07/30 02:27:26;;;;;;;;;;;;;;;;;;1030340;28;19902;-83
2021/07/30 02:27:58;;;;;;;;;;;;;;;;;;1026591;28;19919;-85
2021/07/30 02:28:30;;;;;;;;;;;;;;;;;;1030332;28;19946;-85
2021/07/30 02:29:01;;;;;;;;;;;;;;;;;;1033801;28;19890;-85
2021/07/30 02:29:32;;;;;;;;;;;;;;;;;;1030124;28;19914;-85
2021/07/30 02:30:03;;;;;;;;;;;;;;;;;;1029824;28;19899;-84
2021/07/30 02:30:36;;;;;;;;;;;;;;;;;;1033732;28;19899;-85
2021/07/30 02:31:08;;;;;;;;;;;;;;;;;;1034370;28;19900;-83
2021/07/30 02:31:40;;;;;;;;;;;;;;;;;;1034456;28;19918;-85
2021/07/30 02:32:11;;;;;;;;;;;;;;;;;;1036313;28;19937;-86
2021/07/30 02:32:41;;;;;;;;;;;;;;;;;;1033452;28;19962;-85
2021/07/30 02:33:11;;;;;;;;;;;;;;;;;;1033712;28;19918;-87
2021/07/30 02:33:42;;;;;;;;;;;;;;;;;;1033356;28;19934;-84
2021/07/30 02:34:12;;;;;;;;;;;;;;;;;;1031566;28;19910;-84
2021/07/30 02:34:42;;;;;;;;;;;;;;;;;;1028660;28;19894;-83
2021/07/30 02:35:15;;;;;;;;;;;;;;;;;;1029457;29;19937;-81
2021/07/30 02:35:46;;;;;;;;;;;;;;;;;;1029428;28;19903;-83
2021/07/30 02:36:18;;;;;;;;;;;;;;;;;;1026851;29;19915;-84
2021/07/30 02:36:49;;;;;;;;;;;;;;;;;;1025374;28;19898;-87
2021/07/30 02:37:22;;;;;;;;;;;;;;;;;;1017827;29;19895;-83
2021/07/30 02:37:55;;;;;;;;;;;;;;;;;;1029581;28;19895;-83
2021/07/30 02:38:31;;;;;;;;;;;;;;;;;;1025441;28;19899;-81
2021/07/30 02:39:02;;;;;;;;;;;;;;;;;;1029287;28;19922;-84
2021/07/30 02:39:33;;;;;;;;;;;;;;;;;;1025604;28;19907;-84
2021/07/30 02:40:07;;;;;;;;;;;;;;;;;;1029920;28;19895;-83
2021/07/30 02:40:38;;;;;;;;;;;;;;;;;;1033564;28;19894;-84
2021/07/30 02:41:08;;;;;;;;;;;;;;;;;;1033592;28;19902;-86
2021/07/30 02:41:39;;;;;;;;;;;;;;;;;;1029424;28;19986;-86
2021/07/30 02:42:09;;;;;;;;;;;;;;;;;;1029521;28;19905;-86
2021/07/30 02:42:41;;;;;;;;;;;;;;;;;;1033561;28;19894;-84
2021/07/30 02:43:12;;;;;;;;;;;;;;;;;;1029601;28;19895;-86
2021/07/30 02:43:46;;;;;;;;;;;;;;;;;;1029483;28;19906;-85
2021/07/30 02:44:19;;;;;;;;;;;;;;;;;;1021684;28;19962;-83
2021/07/30 02:44:52;;;;;;;;;;;;;;;;;;1030736;28;19941;-82
2021/07/30 02:45:22;;;;;;;;;;;;;;;;;;1033558;28;19898;-84
2021/07/30 02:45:53;;;;;;;;;;;;;;;;;;1030205;28;19899;-82
2021/07/30 02:46:24;;;;;;;;;;;;;;;;;;1029300;28;19894;-82
2021/07/30 02:46:55;;;;;;;;;;;;;;;;;;1033207;28;19915;-82
2021/07/30 02:47:26;;;;;;;;;;;;;;;;;;1033523;28;19898;-85
2021/07/30 02:47:57;;;;;;;;;;;;;;;;;;1029548;28;19906;-83
2021/07/30 02:48:27;;;;;;;;;;;;;;;;;;1025610;28;19915;-84
2021/07/30 02:48:58;;;;;;;;;;;;;;;;;;1029509;28;19914;-84
2021/07/30 02:49:29;;;;;;;;;;;;;;;;;;1029637;28;19899;-85
2021/07/30 02:50:00;;;;;;;;;;;;;;;;;;1029807;28;19913;-83
2021/07/30 02:50:31;;;;;;;;;;;;;;;;;;1029161;28;19962;-83
2021/07/30 02:51:02;;;;;;;;;;;;;;;;;;1025838;28;19935;-82
2021/07/30 02:51:33;;;;;;;;;;;;;;;;;;1025242;29;19935;-83
2021/07/30 02:52:03;;;;;;;;;;;;;;;;;;1029498;28;19902;-83
2021/07/30 02:52:34;;;;;;;;;;;;;;;;;;1033219;28;19941;-83
2021/07/30 02:53:04;;;;;;;;;;;;;;;;;;1037265;28;19901;-83
2021/07/30 02:53:39;;;;;;;;;;;;;;;;;;1036830;28;19937;-81
2021/07/30 02:54:10;;;;;;;;;;;;;;;;;;1037171;28;19968;-83
2021/07/30 02:54:40;;;;;;;;;;;;;;;;;;1036477;28;19973;-83
2021/07/30 02:55:13;;;;;;;;;;;;;;;;;;1037065;28;19890;-83
2021/07/30 02:55:45;;;;;;;;;;;;;;;;;;1033929;28;20010;-83
2021/07/30 02:56:16;;;;;;;;;;;;;;;;;;1037985;28;19917;-82
2021/07/30 02:56:46;;;;;;;;;;;;;;;;;;1033472;28;20430;-83
2021/07/30 02:57:17;;;;;;;;;;;;;;;;;;1029668;29;19918;-82
2021/07/30 02:57:47;;;;;;;;;;;;;;;;;;1029637;29;19973;-82
2021/07/30 02:58:17;;;;;;;;;;;;;;;;;;1029522;28;19911;-82
2021/07/30 02:58:48;;;;;;;;;;;;;;;;;;1029608;28;19910;-82
2021/07/30 02:59:19;;;;;;;;;;;;;;;;;;1033434;28;19934;-82
2021/07/30 02:59:49;;;;;;;;;;;;;;;;;;1037736;28;19956;-82
2021/07/30 03:00:20;;;;;;;;;;;;;;;;;;1033576;28;19906;-82
2021/07/30 03:00:51;;;;;;;;;;;;;;;;;;1033947;28;19965;-83
2021/07/30 03:01:21;;;;;;;;;;;;;;;;;;1026070;29;19929;-82
2021/07/30 03:01:51;;;;;;;;;;;;;;;;;;1030001;28;19902;-82
2021/07/30 03:02:22;;;;;;;;;;;;;;;;;;1029707;28;19906;-81
2021/07/30 03:02:52;;;;;;;;;;;;;;;;;;1033448;28;19906;-82
2021/07/30 03:03:23;;;;;;;;;;;;;;;;;;1029342;28;19934;-82
2021/07/30 03:03:53;;;;;;;;;;;;;;;;;;1037518;28;19906;-82
2021/07/30 03:04:23;;;;;;;;;;;;;;;;;;1032977;28;19907;-82
2021/07/30 03:04:54;;;;;;;;;;;;;;;;;;1029098;29;19891;-82
2021/07/30 03:05:24;;;;;;;;;;;;;;;;;;1029040;29;19906;-82
2021/07/30 03:05:55;;;;;;;;;;;;;;;;;;1028621;29;19926;-82
2021/07/30 03:06:25;;;;;;;;;;;;;;;;;;1021205;29;19908;-82
2021/07/30 03:06:56;;;;;;;;;;;;;;;;;;1021199;29;19907;-82
2021/07/30 03:07:26;;;;;;;;;;;;;;;;;;1021719;29;19907;-81
2021/07/30 03:07:56;;;;;;;;;;;;;;;;;;1031963;28;19942;-82
2021/07/30 03:08:27;;;;;;;;;;;;;;;;;;1029001;28;19974;-82
2021/07/30 03:08:57;;;;;;;;;;;;;;;;;;1033142;28;19913;-82
2021/07/30 03:09:27;;;;;;;;;;;;;;;;;;1033085;28;19906;-82
2021/07/30 03:09:58;;;;;;;;;;;;;;;;;;1029192;28;19934;-82
2021/07/30 03:10:28;;;;;;;;;;;;;;;;;;1033015;28;19906;-82
2021/07/30 03:10:59;;;;;;;;;;;;;;;;;;1032715;28;19886;-82
2021/07/30 03:11:29;;;;;;;;;;;;;;;;;;1036390;28;19941;-82
2021/07/30 03:11:59;;;;;;;;;;;;;;;;;;1033549;28;19969;-82
2021/07/30 03:12:30;;;;;;;;;;;;;;;;;;1029279;29;19929;-82
2021/07/30 03:13:00;;;;;;;;;;;;;;;;;;1022719;29;19914;-82
2021/07/30 03:13:30;;;;;;;;;;;;;;;;;;1025502;29;19907;-82
2021/07/30 03:14:01;;;;;;;;;;;;;;;;;;1029121;28;19906;-82
2021/07/30 03:14:31;;;;;;;;;;;;;;;;;;1033427;28;19943;-82
2021/07/30 03:15:01;;;;;;;;;;;;;;;;;;1037202;28;19961;-82
2021/07/30 03:15:31;;;;;;;;;;;;;;;;;;1037074;28;19914;-82
2021/07/30 03:16:03;;;;;;;;;;;;;;;;;;1037211;28;19910;-82
2021/07/30 03:16:33;;;;;;;;;;;;;;;;;;1036178;28;19925;-82
2021/07/30 03:17:04;;;;;;;;;;;;;;;;;;1033283;28;19925;-82
2021/07/30 03:17:34;;;;;;;;;;;;;;;;;;1029088;29;20440;-82
2021/07/30 03:18:04;;;;;;;;;;;;;;;;;;1026593;29;19942;-82
2021/07/30 03:18:34;;;;;;;;;;;;;;;;;;1032337;28;19910;-82
2021/07/30 03:19:05;;;;;;;;;;;;;;;;;;1036326;28;19905;-82
2021/07/30 03:19:35;;;;;;;;;;;;;;;;;;1036204;28;19960;-84
2021/07/30 03:20:05;;;;;;;;;;;;;;;;;;1035324;28;19933;-82
2021/07/30 03:20:36;;;;;;;;;;;;;;;;;;1034366;28;20000;-83
2021/07/30 03:21:06;;;;;;;;;;;;;;;;;;1034536;28;20359;-82
2021/07/30 03:21:37;;;;;;;;;;;;;;;;;;1037053;28;19944;-84
2021/07/30 03:22:07;;;;;;;;;;;;;;;;;;1034108;28;19945;-85
2021/07/30 03:22:38;;;;;;;;;;;;;;;;;;1034521;28;19910;-84
2021/07/30 03:23:08;;;;;;;;;;;;;;;;;;1037179;28;19990;-83
2021/07/30 03:23:38;;;;;;;;;;;;;;;;;;1033821;28;19898;-82
2021/07/30 03:24:08;;;;;;;;;;;;;;;;;;1037743;28;19900;-83
2021/07/30 03:24:39;;;;;;;;;;;;;;;;;;1033074;28;19929;-84
2021/07/30 03:25:09;;;;;;;;;;;;;;;;;;1032263;28;20008;-84
2021/07/30 03:25:39;;;;;;;;;;;;;;;;;;1035728;28;19937;-84
2021/07/30 03:26:10;;;;;;;;;;;;;;;;;;1030581;28;19917;-85
2021/07/30 03:26:40;;;;;;;;;;;;;;;;;;1030243;28;19989;-85
2021/07/30 03:27:10;;;;;;;;;;;;;;;;;;1026097;29;19917;-84
2021/07/30 03:27:42;;;;;;;;;;;;;;;;;;1022068;29;19938;-85
2021/07/30 03:28:12;;;;;;;;;;;;;;;;;;1020597;29;20019;-84
2021/07/30 03:28:42;;;;;;;;;;;;;;;;;;1022327;29;20032;-84
2021/07/30 03:29:13;;;;;;;;;;;;;;;;;;1025845;29;19906;-84
2021/07/30 03:29:43;;;;;;;;;;;;;;;;;;1026126;29;19911;-85
2021/07/30 03:30:15;;;;;;;;;;;;;;;;;;1029831;28;19910;-86
2021/07/30 03:30:46;;;;;;;;;;;;;;;;;;1034335;28;19952;-84
2021/07/30 03:31:16;;;;;;;;;;;;;;;;;;1034353;28;19906;-83
2021/07/30 03:31:47;;;;;;;;;;;;;;;;;;1034717;28;20264;-83
2021/07/30 03:32:17;;;;;;;;;;;;;;;;;;1032377;28;19917;-83
2021/07/30 03:32:48;;;;;;;;;;;;;;;;;;1027006;29;19911;-83
2021/07/30 03:33:18;;;;;;;;;;;;;;;;;;1026744;28;19915;-83
2021/07/30 03:33:48;;;;;;;;;;;;;;;;;;1026744;29;19942;-84
2021/07/30 03:34:18;;;;;;;;;;;;;;;;;;1020667;29;19907;-82
2021/07/30 03:34:49;;;;;;;;;;;;;;;;;;1029100;28;19920;-82
2021/07/30 03:35:19;;;;;;;;;;;;;;;;;;1029543;28;19946;-82
2021/07/30 03:35:49;;;;;;;;;;;;;;;;;;1030026;28;19922;-85
2021/07/30 03:36:19;;;;;;;;;;;;;;;;;;1030113;28;19968;-84
2021/07/30 03:36:50;;;;;;;;;;;;;;;;;;1028422;28;19903;-85
2021/07/30 03:37:20;;;;;;;;;;;;;;;;;;1030002;28;19934;-82
2021/07/30 03:37:50;;;;;;;;;;;;;;;;;;1034171;28;20022;-81
2021/07/30 03:38:21;;;;;;;;;;;;;;;;;;1026182;28;19915;-82
2021/07/30 03:38:51;;;;;;;;;;;;;;;;;;1025799;28;19915;-86
2021/07/30 03:39:21;;;;;;;;;;;;;;;;;;1028204;28;19911;-83
2021/07/30 03:39:51;;;;;;;;;;;;;;;;;;1026772;28;19932;-84
2021/07/30 03:40:22;;;;;;;;;;;;;;;;;;1030968;28;19941;-83
2021/07/30 03:40:52;;;;;;;;;;;;;;;;;;1032028;28;19914;-82